Time;durP1;ratioP1;P1;durP2;ratioP2;P2;SDS_P1;SDS_P2;PMS_P1;PMS_P2;Temp;Humidity;BMP_temperature;BMP_pressure;BME280_temperature;BME280_humidity;BME280_pressure;Samples;Min_cycle;Max_cycle;Signal;HPM_P1;HPM_P2
2022/06/11 00:02:11;;;;;;;;;5.50;5.00;;;;;20.23;78.87;100074.37;146608;563;46018;-82
2022/06/11 00:05:03;;;;;;;;;5.33;5.00;;;;;20.29;79.90;100074.37;146608;708;46018;-78
2022/06/11 00:07:57;;;;;;;;;9.00;6.50;;;;;20.34;79.06;100069.09;146610;652;45019;-77
2022/06/11 00:10:49;;;;;;;;;5.33;5.33;;;;;18.88;78.21;99806.72;146606;575;46018;-74
2022/06/11 00:13:42;;;;;;;;;6.33;5.67;;;;;19.25;77.53;99872.50;146609;563;46018;-73
2022/06/11 00:16:34;;;;;;;;;6.33;6.33;;;;;20.43;77.99;100056.81;146607;580;46010;-77
2022/06/11 00:19:27;;;;;;;;;4.00;4.00;;;;;20.46;77.40;100058.59;146606;707;46018;-77
2022/06/11 00:22:21;;;;;;;;;8.00;6.50;;;;;20.43;77.81;100063.84;146603;573;47010;-77
2022/06/11 00:25:13;;;;;;;;;8.25;6.25;;;;;20.36;77.31;100065.59;146610;579;45046;-80
2022/06/11 00:28:07;;;;;;;;;8.00;6.25;;;;;20.30;77.64;100070.87;146604;577;46018;-79
2022/06/11 00:30:59;;;;;;;;;6.67;5.33;;;;;20.23;77.24;100064.72;146609;627;46019;-80
2022/06/11 00:33:51;;;;;;;;;5.33;4.67;;;;;20.22;77.51;100065.59;146606;605;46018;-78
2022/06/11 00:36:45;;;;;;;;;5.50;5.50;;;;;20.18;78.33;100055.06;146606;689;46018;-77
2022/06/11 00:39:40;;;;;;;;;5.00;4.00;;;;;20.17;78.25;100055.94;146608;570;46010;-78
2022/06/11 00:42:35;;;;;;;;;6.00;4.00;;;;;20.15;78.21;100053.28;146610;722;46008;-78
2022/06/11 00:45:58;;;;;;;;;5.00;5.00;;;;;20.10;78.40;100051.53;146604;598;46010;-78
2022/06/11 00:48:51;;;;;;;;;4.33;4.00;;;;;20.11;78.07;100051.53;146607;570;46018;-78
2022/06/11 00:51:43;;;;;;;;;5.67;3.67;;;;;20.13;78.73;100048.91;146605;578;46916;-85
2022/06/11 00:54:37;;;;;;;;;5.67;5.33;;;;;20.16;78.34;100052.44;146611;634;45018;-79
2022/06/11 00:57:34;;;;;;;;;4.75;4.75;;;;;20.18;78.15;100041.88;146603;576;46018;-78
2022/06/11 01:00:32;;;;;;;;;6.50;5.25;;;;;20.18;78.02;100040.13;146608;575;46019;-72
2022/06/11 01:03:42;;;;;;;;;5.00;4.50;;;;;20.20;78.06;100034.88;146606;617;46018;-71
2022/06/11 01:06:57;;;;;;;;;6.00;5.00;;;;;20.22;77.51;100035.78;146607;574;46018;-71
2022/06/11 01:10:26;;;;;;;;;6.75;6.25;;;;;20.23;78.35;100033.13;146603;616;46018;-71
2022/06/11 01:13:59;;;;;;;;;5.00;5.00;;;;;20.22;77.98;100025.25;146610;594;46018;-70
2022/06/11 01:17:20;;;;;;;;;6.00;5.50;;;;;20.22;78.81;100039.28;146606;582;46031;-71
2022/06/11 01:20:53;;;;;;;;;8.50;8.00;;;;;20.24;78.68;100042.78;146606;598;47006;-70
2022/06/11 01:24:42;;;;;;;;;5.67;5.67;;;;;19.40;78.29;99890.03;146605;652;46018;-74
2022/06/11 01:28:22;;;;;;;;;5.67;5.33;;;;;19.06;78.17;99832.13;146610;614;46008;-73
2022/06/11 01:31:35;;;;;;;;;5.00;5.00;;;;;20.28;78.07;100031.38;146607;695;45916;-82
2022/06/11 01:34:49;;;;;;;;;8.00;6.00;;;;;20.38;77.82;100036.66;146608;671;46018;-74
2022/06/11 01:37:55;;;;;;;;;5.00;4.67;;;;;20.47;78.10;100041.94;146606;636;46011;-75
2022/06/11 01:41:00;;;;;;;;;6.33;6.00;;;;;20.50;78.69;100037.53;146609;581;46018;-79
2022/06/11 01:43:56;;;;;;;;;4.00;4.00;;;;;20.48;77.95;100033.13;146605;627;46019;-79
2022/06/11 01:46:52;;;;;;;;;4.50;4.50;;;;;20.42;78.53;100033.13;146608;611;46018;-78
2022/06/11 01:49:52;;;;;;;;;4.33;4.00;;;;;20.41;78.50;100036.66;146606;651;46010;-78
2022/06/11 01:53:13;;;;;;;;;5.33;5.33;;;;;20.38;77.96;100032.25;146608;630;45019;-75
2022/06/11 01:56:52;;;;;;;;;6.00;5.33;;;;;20.25;76.98;100004.19;146605;656;46018;-78
2022/06/11 02:00:22;;;;;;;;;5.00;5.00;;;;;20.37;77.77;100019.97;146603;579;46918;-76
2022/06/11 02:03:37;;;;;;;;;7.00;6.00;;;;;20.34;77.95;100025.22;146605;589;46018;-78
2022/06/11 02:07:17;;;;;;;;;7.67;6.00;;;;;20.26;78.47;100022.59;146610;598;45025;-83
2022/06/11 02:10:27;;;;;;;;;5.75;5.25;;;;;20.23;78.05;100019.97;146605;609;46914;-80
2022/06/11 02:13:40;;;;;;;;;4.00;4.00;;;;;20.22;78.71;100017.34;146609;571;46008;-82
2022/06/11 02:16:59;;;;;;;;;6.00;5.00;;;;;19.89;78.72;99965.53;146604;592;46018;-79
2022/06/11 02:20:01;;;;;;;;;6.00;6.00;;;;;20.15;79.81;100021.69;146611;615;46008;-75
2022/06/11 02:23:18;;;;;;;;;5.75;5.75;;;;;20.11;78.56;100022.59;146606;651;46019;-74
2022/06/11 02:26:18;;;;;;;;;7.00;6.00;;;;;20.11;79.04;100027.84;146606;595;46018;-73
2022/06/11 02:29:13;;;;;;;;;6.00;6.00;;;;;20.07;79.51;100034.88;146609;570;45916;-73
2022/06/11 02:32:16;;;;;;;;;5.67;5.67;;;;;19.98;80.10;100048.00;146606;594;46018;-73
2022/06/11 02:35:11;;;;;;;;;8.25;7.00;;;;;19.87;79.60;100048.84;146604;688;46018;-73
2022/06/11 02:38:04;;;;;;;;;6.75;5.75;;;;;19.77;79.07;100056.72;146609;569;46018;-73
2022/06/11 02:41:04;;;;;;;;;5.00;5.00;;;;;19.73;79.73;100062.84;146605;641;46018;-76
2022/06/11 02:43:56;;;;;;;;;5.00;5.00;;;;;19.71;79.03;100063.72;146608;588;46019;-73
2022/06/11 02:46:48;;;;;;;;;5.00;5.00;;;;;19.70;78.59;100070.72;146607;586;46010;-73
2022/06/11 02:49:41;;;;;;;;;7.00;5.33;;;;;19.75;79.45;100086.50;146608;617;46018;-73
2022/06/11 02:52:33;;;;;;;;;5.33;5.00;;;;;19.76;78.95;100078.63;146607;634;46019;-85
2022/06/11 02:55:26;;;;;;;;;6.33;4.33;;;;;19.79;78.86;100083.91;146608;576;46008;-77
2022/06/11 02:58:18;;;;;;;;;6.00;5.67;;;;;19.82;79.25;100094.44;146607;585;46010;-77
2022/06/11 03:01:11;;;;;;;;;3.33;3.33;;;;;19.84;78.05;100090.09;146607;565;46018;-77
2022/06/11 03:04:04;;;;;;;;;4.33;4.33;;;;;19.90;78.32;100088.31;146607;610;46010;-78
2022/06/11 03:06:56;;;;;;;;;5.33;4.33;;;;;19.88;80.06;100084.81;146610;653;46008;-80
2022/06/11 03:09:49;;;;;;;;;6.50;6.50;;;;;19.81;79.65;100091.78;146606;590;46018;-79
2022/06/11 03:12:41;;;;;;;;;11.00;6.50;;;;;19.75;78.47;100082.16;146609;567;46008;-79
2022/06/11 03:15:34;;;;;;;;;5.33;5.33;;;;;19.72;78.48;100092.66;146606;583;46018;-78
2022/06/11 03:18:26;;;;;;;;;4.33;4.33;;;;;19.71;77.86;100090.88;146610;593;46008;-78
2022/06/11 03:21:19;;;;;;;;;5.00;4.00;;;;;19.69;78.65;100086.47;146607;594;46010;-79
2022/06/11 03:24:11;;;;;;;;;3.67;3.00;;;;;19.63;79.01;100087.34;146608;612;46018;-76
2022/06/11 03:27:04;;;;;;;;;7.00;5.00;;;;;19.59;78.64;100086.44;146603;625;46018;-80
2022/06/11 03:29:56;;;;;;;;;4.00;4.00;;;;;19.55;78.83;100091.66;146610;574;46008;-78
2022/06/11 03:32:48;;;;;;;;;5.00;5.00;;;;;19.43;78.97;100074.06;146606;627;46018;-78
2022/06/11 03:35:41;;;;;;;;;5.67;5.33;;;;;19.44;79.08;100094.25;146610;588;46018;-81
2022/06/11 03:38:33;;;;;;;;;6.33;5.00;;;;;19.45;79.23;100100.38;146607;619;45915;-81
2022/06/11 03:41:26;;;;;;;;;6.00;5.67;;;;;19.44;78.85;100095.97;146610;672;46013;-81
2022/06/11 03:44:19;;;;;;;;;4.00;4.00;;;;;19.50;79.75;100104.81;146607;579;46018;-80
2022/06/11 03:47:11;;;;;;;;;5.33;4.67;;;;;19.58;78.98;100099.56;146609;593;46018;-77
2022/06/11 03:50:03;;;;;;;;;2.67;2.67;;;;;19.65;78.94;100098.75;146606;630;46916;-77
2022/06/11 03:52:56;;;;;;;;;7.00;5.33;;;;;19.68;80.13;100092.63;146609;575;46008;-79
2022/06/11 03:55:49;;;;;;;;;6.75;6.50;;;;;19.61;79.40;100092.56;146606;571;46018;-76
2022/06/11 03:58:42;;;;;;;;;8.33;6.33;;;;;19.63;78.67;100092.59;146612;636;45019;-77
2022/06/11 04:01:35;;;;;;;;;6.33;6.00;;;;;19.68;79.20;100085.59;146610;575;45915;-75
2022/06/11 04:04:27;;;;;;;;;5.67;5.00;;;;;19.77;79.41;100092.66;146612;570;46008;-77
2022/06/11 04:07:19;;;;;;;;;7.33;6.00;;;;;19.80;79.37;100090.91;146610;589;46915;-78
2022/06/11 04:10:13;;;;;;;;;5.33;5.00;;;;;19.79;78.21;100093.56;146610;565;46008;-79
2022/06/11 04:13:05;;;;;;;;;4.67;4.67;;;;;19.74;79.44;100096.16;146607;635;46010;-81
2022/06/11 04:15:58;;;;;;;;;7.67;6.33;;;;;19.67;80.34;100104.03;146609;657;46018;-80
2022/06/11 04:18:52;;;;;;;;;8.00;6.67;;;;;19.62;79.96;100102.22;146607;590;46916;-81
2022/06/11 04:21:44;;;;;;;;;5.33;4.67;;;;;19.62;79.86;100093.44;146608;581;46010;-81
2022/06/11 04:24:38;;;;;;;;;5.67;5.67;;;;;19.66;80.15;100097.91;146609;593;46010;-81
2022/06/11 04:27:30;;;;;;;;;5.00;4.33;;;;;19.74;79.22;100105.81;146608;595;46008;-81
2022/06/11 04:30:23;;;;;;;;;8.33;6.00;;;;;19.87;79.18;100102.34;146607;573;45915;-83
2022/06/11 04:33:15;;;;;;;;;7.00;5.00;;;;;19.95;79.17;100108.50;146610;635;46009;-81
2022/06/11 04:36:09;;;;;;;;;7.00;5.33;;;;;20.02;79.17;100101.50;146607;576;46010;-81
2022/06/11 04:39:01;;;;;;;;;4.67;4.67;;;;;20.12;79.39;100107.69;146609;565;46012;-82
2022/06/11 04:41:53;;;;;;;;;9.33;7.00;;;;;20.11;80.86;100096.28;146608;676;46019;-77
2022/06/11 04:44:48;;;;;;;;;5.00;5.00;;;;;20.07;79.11;100107.69;146609;599;46018;-74
2022/06/11 04:47:40;;;;;;;;;6.00;4.50;;;;;20.07;79.71;100116.44;146605;635;46018;-77
2022/06/11 04:50:32;;;;;;;;;8.67;7.67;;;;;20.23;78.70;100132.28;146608;670;46008;-77
2022/06/11 04:53:24;;;;;;;;;7.67;6.00;;;;;20.39;79.02;100125.28;146610;593;45915;-77
2022/06/11 04:56:20;;;;;;;;;9.75;8.50;;;;;20.52;79.05;100125.34;146606;570;47012;-77
2022/06/11 04:59:13;;;;;;;;;7.67;7.67;;;;;20.64;78.63;100134.12;146604;581;46018;-77
2022/06/11 05:02:05;;;;;;;;;8.00;8.00;;;;;20.71;78.18;100142.03;146611;590;46018;-77
2022/06/11 05:04:58;;;;;;;;;7.33;6.33;;;;;20.74;77.37;100135.87;146609;611;46010;-73
2022/06/11 05:07:52;;;;;;;;;0.00;0.00;;;;;20.80;77.46;100135.03;146610;571;46008;-75
2022/06/11 05:10:45;;;;;;;;;4.75;4.75;;;;;20.84;76.40;100134.12;146603;566;46018;-75
2022/06/11 05:13:37;;;;;;;;;5.00;5.00;;;;;20.92;76.75;100135.03;146609;589;46008;-75
2022/06/11 05:16:30;;;;;;;;;5.33;4.33;;;;;21.00;77.70;100133.28;146607;637;46010;-75
2022/06/11 05:19:24;;;;;;;;;7.00;6.50;;;;;20.79;78.44;100088.47;146608;581;46019;-74
2022/06/11 05:22:16;;;;;;;;;8.67;8.67;;;;;20.98;77.88;100133.25;146608;563;45916;-74
2022/06/11 05:25:09;;;;;;;;;6.75;6.25;;;;;21.03;78.00;100141.19;146608;564;46019;-79
2022/06/11 05:28:02;;;;;;;;;6.50;6.00;;;;;21.12;78.15;100141.16;146607;683;46018;-80
2022/06/11 05:30:55;;;;;;;;;7.00;7.00;;;;;21.40;78.14;100146.41;146606;565;46018;-74
2022/06/11 05:33:47;;;;;;;;;7.00;5.75;;;;;21.76;76.86;100144.56;146610;589;45916;-71
2022/06/11 05:36:40;;;;;;;;;5.75;4.75;;;;;22.05;76.01;100155.84;146607;682;46018;-72
2022/06/11 05:39:33;;;;;;;;;4.50;4.50;;;;;22.39;75.88;100165.41;146608;718;46019;-72
2022/06/11 05:42:28;;;;;;;;;3.75;3.00;;;;;22.76;74.09;100163.41;146607;671;46018;-71
2022/06/11 05:45:22;;;;;;;;;5.33;4.00;;;;;23.10;74.17;100171.09;146607;580;46916;-71
2022/06/11 05:48:16;;;;;;;;;5.00;5.00;;;;;23.55;72.95;100172.44;146610;645;46009;-70
2022/06/11 05:51:14;;;;;;;;;5.00;5.00;;;;;23.91;71.77;100180.88;146602;565;46012;-77
2022/06/11 05:54:10;;;;;;;;;4.67;4.00;;;;;24.13;69.37;100181.47;146611;604;45019;-73
2022/06/11 05:57:03;;;;;;;;;4.00;4.00;;;;;24.30;68.66;100181.22;146608;620;46018;-72
2022/06/11 06:00:01;;;;;;;;;3.67;3.67;;;;;24.45;68.85;100182.84;146610;585;46018;-80
2022/06/11 06:02:53;;;;;;;;;2.33;2.33;;;;;24.64;68.20;100179.00;146607;564;46011;-81
2022/06/11 06:05:45;;;;;;;;;2.67;2.67;;;;;24.79;66.46;100181.44;146612;563;46008;-82
2022/06/11 06:08:37;;;;;;;;;3.33;3.00;;;;;24.80;65.83;100183.19;146608;585;46012;-78
2022/06/11 06:11:30;;;;;;;;;5.00;5.00;;;;;24.59;65.95;100172.94;146608;578;47019;-74
2022/06/11 06:14:23;;;;;;;;;4.00;3.00;;;;;24.27;66.37;100184.81;146606;655;46018;-68
2022/06/11 06:17:15;;;;;;;;;4.67;4.00;;;;;23.95;67.19;100183.44;146612;592;45029;-77
2022/06/11 06:20:10;;;;;;;;;3.00;3.00;;;;;23.86;68.30;100183.59;146607;565;46012;-78
2022/06/11 06:23:02;;;;;;;;;6.00;6.00;;;;;23.95;67.94;100174.62;146611;611;46012;-76
2022/06/11 06:25:54;;;;;;;;;4.00;4.00;;;;;24.13;67.51;100186.78;146605;648;46019;-76
2022/06/11 06:28:47;;;;;;;;;2.00;2.00;;;;;24.32;68.09;100180.31;146609;598;46018;-77
2022/06/11 06:31:39;;;;;;;;;5.67;4.67;;;;;24.54;66.47;100174.75;146605;601;46018;-76
2022/06/11 06:34:31;;;;;;;;;6.33;5.00;;;;;24.76;66.05;100178.81;146607;596;46018;-77
2022/06/11 06:37:24;;;;;;;;;4.00;4.00;;;;;25.01;64.75;100181.97;146604;571;47012;-77
2022/06/11 06:40:16;;;;;;;;;3.67;3.67;;;;;25.15;63.77;100184.44;146612;570;45019;-77
2022/06/11 06:43:08;;;;;;;;;6.00;4.00;;;;;25.20;62.54;100185.19;146606;647;46012;-76
2022/06/11 06:46:01;;;;;;;;;5.00;2.33;;;;;25.16;64.89;100188.81;146611;683;46008;-75
2022/06/11 06:48:54;;;;;;;;;2.33;2.33;;;;;25.14;63.76;100181.78;146608;599;46010;-76
2022/06/11 06:51:47;;;;;;;;;4.33;4.33;;;;;25.18;64.24;100184.38;146610;570;46012;-77
2022/06/11 06:54:39;;;;;;;;;5.67;4.67;;;;;25.30;64.18;100188.59;146607;636;46010;-77
2022/06/11 06:57:30;;;;;;;;;3.00;3.00;;;;;25.46;62.44;100194.50;146610;586;46008;-75
2022/06/11 07:00:24;;;;;;;;;4.00;4.00;;;;;25.55;63.10;100181.94;146607;601;45916;-76
2022/06/11 07:03:16;;;;;;;;;3.67;3.67;;;;;25.68;62.84;100192.31;146608;622;46008;-76
2022/06/11 07:06:09;;;;;;;;;4.33;4.33;;;;;25.89;63.43;100193.69;146605;569;46018;-75
2022/06/11 07:09:01;;;;;;;;;0.00;0.00;;;;;26.12;61.37;100185.25;146608;676;46019;-74
2022/06/11 07:11:53;;;;;;;;;4.00;4.00;;;;;26.29;62.42;100188.41;146606;583;46018;-75
2022/06/11 07:14:45;;;;;;;;;6.33;5.00;;;;;26.52;61.46;100174.66;146609;596;46008;-74
2022/06/11 07:17:47;;;;;;;;;4.00;4.00;;;;;26.62;58.45;100181.50;146606;665;46014;-77
2022/06/11 07:20:41;;;;;;;;;3.00;3.00;;;;;26.53;60.02;100181.72;146608;587;46018;-74
2022/06/11 07:23:47;;;;;;;;;4.00;4.00;;;;;26.25;60.29;100184.94;146609;569;46010;-75
2022/06/11 07:26:43;;;;;;;;;4.67;4.00;;;;;25.18;61.24;100061.47;146610;642;46018;-74
2022/06/11 07:29:42;;;;;;;;;2.33;2.33;;;;;25.73;60.82;100194.00;146605;576;46018;-75
2022/06/11 07:32:38;;;;;;;;;5.00;5.00;;;;;25.55;60.71;100195.22;146609;681;46018;-74
2022/06/11 07:35:30;;;;;;;;;6.00;5.00;;;;;24.63;61.63;100057.97;146606;644;46018;-74
2022/06/11 07:38:24;;;;;;;;;3.00;3.00;;;;;25.35;62.82;100192.03;146609;564;46019;-74
2022/06/11 07:41:16;;;;;;;;;5.67;5.33;;;;;25.33;62.94;100201.81;146607;569;46010;-74
2022/06/11 07:44:09;;;;;;;;;4.00;4.00;;;;;25.37;62.98;100200.84;146606;696;46018;-74
2022/06/11 07:47:01;;;;;;;;;5.33;5.33;;;;;25.38;61.75;100202.59;146607;585;46011;-75
2022/06/11 07:49:53;;;;;;;;;4.00;4.00;;;;;25.31;61.85;100191.22;146609;555;46008;-75
2022/06/11 07:52:46;;;;;;;;;5.33;5.00;;;;;25.21;62.58;100194.94;146606;617;46916;-75
2022/06/11 07:55:40;;;;;;;;;5.00;5.00;;;;;25.08;64.10;100177.44;146610;571;46018;-75
2022/06/11 07:58:35;;;;;;;;;5.00;5.00;;;;;25.26;64.53;100193.06;146607;597;46916;-74
2022/06/11 08:01:26;;;;;;;;;5.00;4.33;;;;;25.42;64.22;100190.13;146610;611;46008;-75
2022/06/11 08:04:19;;;;;;;;;4.33;4.33;;;;;25.60;63.78;100189.78;146606;586;46012;-75
2022/06/11 08:07:11;;;;;;;;;4.33;4.00;;;;;25.82;61.16;100187.62;146610;592;46008;-75
2022/06/11 08:10:03;;;;;;;;;4.00;3.00;;;;;26.08;57.51;100178.28;146606;637;46019;-75
2022/06/11 08:12:56;;;;;;;;;2.67;2.67;;;;;26.16;57.29;100176.31;146610;591;45027;-75
2022/06/11 08:15:52;;;;;;;;;4.33;4.00;;;;;26.11;56.79;100164.94;146605;564;46018;-74
2022/06/11 08:18:45;;;;;;;;;3.33;3.33;;;;;26.11;57.40;100168.44;146609;626;46018;-74
2022/06/11 08:21:37;;;;;;;;;3.00;3.00;;;;;26.23;58.06;100165.53;146606;605;46013;-74
2022/06/11 08:24:29;;;;;;;;;4.33;3.33;;;;;26.41;58.59;100158.03;146609;616;46008;-81
2022/06/11 08:27:21;;;;;;;;;3.00;3.00;;;;;26.68;56.97;100154.78;146605;580;46018;-77
2022/06/11 08:30:18;;;;;;;;;2.67;2.33;;;;;26.91;56.83;100155.97;146609;564;46019;-80
2022/06/11 08:33:11;;;;;;;;;3.00;3.00;;;;;27.00;53.35;100144.25;146604;586;46018;-83
2022/06/11 08:36:03;;;;;;;;;2.00;2.00;;;;;27.04;53.78;100159.22;146611;658;46008;-79
2022/06/11 08:38:55;;;;;;;;;3.00;3.00;;;;;27.05;52.90;100156.53;146605;590;46010;-81
2022/06/11 08:41:47;;;;;;;;;4.33;4.33;;;;;27.15;54.65;100162.50;146608;602;46018;-81
2022/06/11 08:44:41;;;;;;;;;2.67;2.67;;;;;26.49;53.82;100013.44;146604;596;46019;-82
2022/06/11 08:47:43;;;;;;;;;3.67;3.67;;;;;27.59;54.11;100156.00;146609;640;46018;-82
2022/06/11 08:50:44;;;;;;;;;4.00;3.67;;;;;27.86;53.99;100156.16;146608;647;45916;-83
2022/06/11 08:53:45;;;;;;;;;3.00;3.00;;;;;28.14;52.61;100163.34;146606;599;46918;-80
2022/06/11 08:56:45;;;;;;;;;3.33;3.33;;;;;28.25;54.16;100167.41;146604;586;46018;-80
2022/06/11 09:00:23;;;;;;;;;3.00;2.67;;;;;27.44;54.35;100017.09;146610;580;46018;-82
2022/06/11 09:04:03;;;;;;;;;4.00;4.00;;;;;28.54;55.14;100160.38;146605;625;46018;-80
2022/06/11 09:07:32;;;;;;;;;2.67;2.67;;;;;28.72;54.27;100177.56;146610;681;46019;-81
2022/06/11 09:10:51;;;;;;;;;1.33;1.33;;;;;28.57;52.09;100186.03;146607;582;46913;-82
2022/06/11 09:14:37;;;;;;;;;3.33;3.33;;;;;28.25;52.09;100195.88;146609;633;46019;-83
2022/06/11 09:17:54;;;;;;;;;3.00;3.00;;;;;27.90;54.36;100197.78;146608;635;45913;-82
2022/06/11 09:21:21;;;;;;;;;3.33;2.00;;;;;27.62;53.40;100190.53;146610;626;46008;-82
2022/06/11 09:24:40;;;;;;;;;3.33;3.33;;;;;27.44;54.76;100188.34;146605;565;46019;-82
2022/06/11 09:27:46;;;;;;;;;3.00;3.00;;;;;27.34;54.17;100192.19;146605;598;46018;-82
2022/06/11 09:30:47;;;;;;;;;3.33;2.00;;;;;27.26;53.94;100189.75;146608;599;46010;-83
2022/06/11 09:33:48;;;;;;;;;3.67;3.00;;;;;27.19;53.18;100190.78;146609;586;46018;-81
2022/06/11 09:36:49;;;;;;;;;4.00;4.00;;;;;27.28;54.20;100168.38;146606;590;46010;-81
2022/06/11 09:39:55;;;;;;;;;2.33;2.33;;;;;27.60;52.21;100170.16;146611;597;46008;-83
2022/06/11 09:43:22;;;;;;;;;2.67;2.67;;;;;27.99;53.62;100162.87;146608;576;46010;-82
2022/06/11 09:46:44;;;;;;;;;3.00;3.00;;;;;28.20;53.65;100177.38;146608;569;46008;-82
2022/06/11 09:50:24;;;;;;;;;2.67;2.00;;;;;27.33;55.06;100012.09;146605;586;46916;-82
2022/06/11 09:54:09;;;;;;;;;2.00;2.00;;;;;28.54;53.35;100179.91;146611;597;47008;-82
2022/06/11 09:57:39;;;;;;;;;1.33;1.33;;;;;27.99;50.63;100058.94;146606;583;46018;-83
2022/06/11 10:00:43;;;;;;;;;5.00;5.00;;;;;28.66;51.83;100172.41;146610;565;46008;-82
2022/06/11 10:04:05;;;;;;;;;1.00;1.00;;;;;28.58;52.83;100175.34;146609;582;46010;-82
2022/06/11 10:07:05;;;;;;;;;2.33;2.33;;;;;28.71;51.36;100178.47;146606;581;46019;-84
2022/06/11 10:10:15;;;;;;;;;2.67;2.67;;;;;28.92;49.39;100168.91;146606;565;46012;-82
2022/06/11 10:13:20;;;;;;;;;1.00;1.00;;;;;29.02;49.78;100164.16;146611;577;46008;-82
2022/06/11 10:16:37;;;;;;;;;2.67;1.67;;;;;29.10;50.16;100165.66;146607;605;46018;-81
2022/06/11 10:20:07;;;;;;;;;3.00;3.00;;;;;28.30;48.77;100005.53;146608;569;46010;-83
2022/06/11 10:23:37;;;;;;;;;1.00;0.67;;;;;28.89;50.51;100103.16;146604;575;46019;-82
2022/06/11 10:26:44;;;;;;;;;1.00;1.00;;;;;29.13;50.44;100164.66;146609;610;46018;-79
2022/06/11 10:29:59;;;;;;;;;1.00;1.00;;;;;29.02;48.66;100161.50;146607;629;46011;-81
2022/06/11 10:32:55;;;;;;;;;2.00;1.00;;;;;28.73;48.55;100160.66;146609;586;46018;-81
2022/06/11 10:35:53;;;;;;;;;2.00;2.00;;;;;28.48;49.82;100158.75;146607;605;46012;-84
2022/06/11 10:39:11;;;;;;;;;1.67;1.67;;;;;28.45;50.81;100144.66;146611;595;46012;-81
2022/06/11 10:42:31;;;;;;;;;1.33;1.33;;;;;28.68;49.13;100146.56;146602;571;47916;-80
2022/06/11 10:45:23;;;;;;;;;0.67;0.33;;;;;28.75;46.27;100150.78;146608;599;46018;-82
2022/06/11 10:48:25;;;;;;;;;3.33;1.33;;;;;28.87;49.89;100144.16;146607;656;46018;-82
2022/06/11 10:51:30;;;;;;;;;1.00;1.00;;;;;28.92;47.21;100148.44;146609;622;46008;-80
2022/06/11 10:54:26;;;;;;;;;1.00;1.00;;;;;28.98;48.29;100142.88;146606;580;46012;-73
2022/06/11 10:57:29;;;;;;;;;1.00;1.00;;;;;29.14;47.09;100137.94;146610;582;46018;-73
2022/06/11 11:00:32;;;;;;;;;1.00;1.00;;;;;29.30;45.26;100130.25;146604;569;46018;-73
2022/06/11 11:03:36;;;;;;;;;1.00;1.00;;;;;29.30;47.42;100122.22;146612;642;46008;-73
2022/06/11 11:06:37;;;;;;;;;5.00;4.00;;;;;29.20;48.12;100120.81;146607;585;46010;-73
2022/06/11 11:09:29;;;;;;;;;0.67;0.67;;;;;29.14;46.10;100127.25;146609;571;46008;-74
2022/06/11 11:12:32;;;;;;;;;3.00;3.00;;;;;29.18;48.33;100122.66;146605;571;46018;-74
2022/06/11 11:15:28;;;;;;;;;6.00;4.00;;;;;28.65;46.56;100141.34;146607;663;46019;-72
2022/06/11 11:18:27;;;;;;;;;3.00;3.00;;;;;27.94;49.20;100142.59;146607;575;46010;-76
2022/06/11 11:21:45;;;;;;;;;5.00;5.00;;;;;27.23;51.18;100152.56;146609;595;46018;-72
2022/06/11 11:25:04;;;;;;;;;4.33;4.33;;;;;26.87;52.01;100144.56;146607;578;46018;-74
2022/06/11 11:27:57;;;;;;;;;4.00;3.67;;;;;26.81;53.77;100139.38;146613;620;45046;-73
2022/06/11 11:30:50;;;;;;;;;5.00;3.00;;;;;26.92;53.04;100141.78;146606;593;46018;-73
2022/06/11 11:33:47;;;;;;;;;4.00;3.00;;;;;26.87;51.53;100139.22;146609;658;46018;-75
2022/06/11 11:36:39;;;;;;;;;6.00;5.00;;;;;26.84;53.55;100143.75;146608;582;46011;-72
2022/06/11 11:39:35;;;;;;;;;4.00;4.00;;;;;26.89;54.09;100144.53;146610;581;46008;-73
2022/06/11 11:42:44;;;;;;;;;4.00;4.00;;;;;26.97;53.40;100144.31;146604;653;46018;-73
2022/06/11 11:45:53;;;;;;;;;4.00;4.00;;;;;27.16;52.56;100137.62;146608;603;46018;-72
2022/06/11 11:48:58;;;;;;;;;2.33;2.33;;;;;27.36;54.48;100137.12;146604;638;46018;-73
2022/06/11 11:51:50;;;;;;;;;5.00;5.00;;;;;27.48;52.83;100131.47;146609;591;46009;-71
2022/06/11 11:54:51;;;;;;;;;4.00;4.00;;;;;27.56;50.21;100139.22;146627;624;46916;-72
2022/06/11 11:57:43;;;;;;;;;4.33;4.33;;;;;27.53;51.31;100136.66;146628;613;45019;-71
2022/06/11 12:01:03;;;;;;;;;3.00;2.67;;;;;27.50;52.88;100124.28;146626;585;45018;-71
2022/06/11 12:04:35;;;;;;;;;2.67;2.67;;;;;27.55;50.80;100130.38;146630;598;45010;-72
2022/06/11 12:07:44;;;;;;;;;4.33;3.33;;;;;27.49;50.96;100129.66;146625;588;45915;-70
2022/06/11 12:10:42;;;;;;;;;4.33;3.00;;;;;27.58;52.24;100116.09;146631;572;45012;-81
2022/06/11 12:13:49;;;;;;;;;4.00;3.67;;;;;27.83;53.88;100125.16;146630;571;45012;-81
2022/06/11 12:16:45;;;;;;;;;3.00;3.00;;;;;28.12;51.60;100141.19;146629;630;45018;-82
2022/06/11 12:19:39;;;;;;;;;4.33;4.00;;;;;28.32;50.12;100136.13;146629;578;45916;-82
2022/06/11 12:23:09;;;;;;;;;2.00;2.00;;;;;28.32;49.76;100139.66;146629;612;45018;-79
2022/06/11 12:26:28;;;;;;;;;2.67;2.67;;;;;28.29;52.08;100118.44;146625;580;45916;-77
2022/06/11 12:29:39;;;;;;;;;2.00;1.67;;;;;28.15;47.91;100125.09;146630;588;45018;-77
2022/06/11 12:32:34;;;;;;;;;0.00;0.00;;;;;27.79;47.16;100125.31;146628;584;45917;-78
2022/06/11 12:36:12;;;;;;;;;2.00;2.00;;;;;26.90;50.45;100019.44;146627;611;45019;-79
2022/06/11 12:39:35;;;;;;;;;3.00;2.33;;;;;27.88;51.39;100146.31;146627;600;46010;-78
2022/06/11 12:42:57;;;;;;;;;1.00;1.00;;;;;28.29;42.53;100146.91;146631;570;45008;-80
2022/06/11 12:46:30;;;;;;;;;0.00;0.00;;;;;28.69;42.02;100137.62;146628;636;45914;-77
2022/06/11 12:49:38;;;;;;;;;0.33;0.33;;;;;29.02;46.27;100150.81;146630;672;45010;-79
2022/06/11 12:52:58;;;;;;;;;0.00;0.00;;;;;29.25;46.07;100145.53;146624;621;45018;-80
2022/06/11 12:56:33;;;;;;;;;0.33;0.00;;;;;29.37;45.62;100153.13;146607;607;46018;-79
2022/06/11 13:00:01;;;;;;;;;1.33;0.00;;;;;29.38;44.64;100159.37;146605;705;46019;-79
2022/06/11 13:03:31;;;;;;;;;0.33;0.33;;;;;28.76;42.44;100061.81;146612;669;46008;-78
2022/06/11 13:06:59;;;;;;;;;1.00;0.00;;;;;29.30;45.62;100156.94;146608;630;46010;-77
2022/06/11 13:10:39;;;;;;;;;2.00;2.00;;;;;29.31;46.46;100156.00;146609;689;46008;-77
2022/06/11 13:14:31;;;;;;;;;0.00;0.00;;;;;28.15;47.00;99994.50;146608;597;46010;-77
2022/06/11 13:17:56;;;;;;;;;0.33;0.33;;;;;29.02;46.92;100154.34;146610;570;46008;-77
2022/06/11 13:21:20;;;;;;;;;1.00;0.00;;;;;29.00;46.44;100154.41;146604;598;46019;-77
2022/06/11 13:24:45;;;;;;;;;1.67;1.67;;;;;28.95;46.68;100150.13;146609;669;46018;-78
2022/06/11 13:28:16;;;;;;;;;2.00;2.00;;;;;28.89;48.75;100158.34;146606;585;46012;-78
2022/06/11 13:31:26;;;;;;;;;4.00;3.00;;;;;28.77;47.37;100162.28;146605;585;46018;-78
2022/06/11 13:34:44;;;;;;;;;2.67;2.67;;;;;28.47;49.72;100157.00;146605;570;46023;-77
2022/06/11 13:38:28;;;;;;;;;2.67;2.67;;;;;28.31;51.29;100158.38;146610;583;46008;-79
2022/06/11 13:42:05;;;;;;;;;4.00;4.00;;;;;27.51;50.83;100013.31;146608;645;46019;-79
2022/06/11 13:45:40;;;;;;;;;3.67;2.33;;;;;28.44;50.67;100161.56;146609;584;46018;-78
2022/06/11 13:49:10;;;;;;;;;2.67;2.67;;;;;28.40;46.07;100144.78;146607;585;46012;-77
2022/06/11 13:55:41;;;;;;;;;2.67;2.67;;;;;27.11;48.10;100003.81;146627;603;45018;-78
2022/06/11 13:59:24;;;;;;;;;16.00;15.00;;;;;27.82;49.87;100171.38;146631;674;44019;-79
2022/06/11 14:03:00;;;;;;;;;18.00;18.00;;;;;27.66;50.88;100159.34;146627;717;45914;-77
2022/06/11 14:05:56;;;;;;;;;0.67;0.67;;;;;27.60;49.06;100148.87;146627;601;46018;-77
2022/06/11 14:12:49;;;;;;;;;1.67;1.67;;;;;27.85;49.17;100141.06;146630;566;46012;-77
2022/06/11 14:15:51;;;;;;;;;2.00;1.00;;;;;28.01;46.53;100137.06;146630;571;45010;-78
2022/06/11 14:18:43;;;;;;;;;3.67;2.67;;;;;28.05;47.76;100146.72;146628;575;45019;-78